Time;durP1;ratioP1;P1;durP2;ratioP2;P2;SDS_P1;SDS_P2;PMS_P1;PMS_P2;Temp;Humidity;BMP_temperature;BMP_pressure;BME280_temperature;BME280_humidity;BME280_pressure;Samples;Min_cycle;Max_cycle;Signal;HPM_P1;HPM_P2
2022/09/09 00:02:17;;;;;;;10.67;7.80;;;15.80;99.90;;;;;;5132425;27;20894;-71
2022/09/09 00:04:51;;;;;;;11.27;8.05;;;15.70;99.90;;;;;;5132853;27;20399;-71
2022/09/09 00:07:23;;;;;;;12.60;8.48;;;15.70;99.90;;;;;;5119969;27;20757;-70
2022/09/09 00:10:01;;;;;;;12.52;7.85;;;15.70;99.90;;;;;;5132196;27;20438;-71
2022/09/09 00:12:48;;;;;;;14.13;8.43;;;15.60;99.90;;;;;;5132712;27;20417;-70
2022/09/09 00:15:20;;;;;;;12.87;8.63;;;15.60;99.90;;;;;;5125323;27;20478;-71
2022/09/09 00:17:45;;;;;;;10.35;7.60;;;15.50;99.90;;;;;;5125589;27;20502;-71
2022/09/09 00:20:26;;;;;;;13.03;8.07;;;15.50;99.90;;;;;;5111702;27;20483;-71
2022/09/09 00:23:00;;;;;;;14.18;8.25;;;15.50;99.90;;;;;;5127616;27;20403;-70
2022/09/09 00:25:50;;;;;;;14.30;8.00;;;15.40;99.90;;;;;;5132483;27;20912;-71
2022/09/09 00:28:22;;;;;;;10.95;7.93;;;15.40;99.90;;;;;;5125578;27;20785;-70
2022/09/09 00:30:48;;;;;;;12.48;8.20;;;15.40;99.90;;;;;;5126077;27;20430;-71
2022/09/09 00:33:18;;;;;;;14.32;8.00;;;15.30;99.90;;;;;;5131594;27;20430;-71
2022/09/09 00:35:59;;;;;;;13.60;8.68;;;15.20;99.90;;;;;;5116142;27;20434;-71
2022/09/09 00:38:33;;;;;;;13.03;8.50;;;15.20;99.90;;;;;;5121384;27;20895;-71
2022/09/09 00:41:09;;;;;;;13.65;8.27;;;15.20;99.90;;;;;;5118474;27;20490;-71
2022/09/09 00:43:40;;;;;;;12.80;8.32;;;15.20;99.90;;;;;;5130916;27;20407;-71
2022/09/09 00:46:34;;;;;;;14.17;8.77;;;15.10;99.90;;;;;;5117968;27;20407;-70
2022/09/09 00:49:30;;;;;;;12.50;8.35;;;15.10;99.90;;;;;;5126682;27;20527;-71
2022/09/09 00:52:04;;;;;;;11.63;8.23;;;15.10;99.90;;;;;;5126120;27;20948;-71
2022/09/09 00:54:35;;;;;;;16.10;9.07;;;15.00;99.90;;;;;;5131642;27;20504;-71
2022/09/09 00:57:23;;;;;;;15.13;8.75;;;15.00;99.90;;;;;;5127397;27;20819;-71
2022/09/09 00:59:57;;;;;;;15.50;9.45;;;15.00;99.90;;;;;;5124592;27;20493;-70
2022/09/09 01:02:35;;;;;;;15.35;9.30;;;15.00;99.90;;;;;;5131497;27;20506;-71
2022/09/09 01:05:10;;;;;;;15.35;9.23;;;15.00;99.90;;;;;;5130581;27;20497;-71
2022/09/09 01:07:36;;;;;;;16.67;9.30;;;15.00;99.90;;;;;;5120562;27;20432;-71
2022/09/09 01:10:08;;;;;;;12.55;8.98;;;15.00;99.90;;;;;;5128009;27;20395;-70
2022/09/09 01:12:46;;;;;;;14.70;9.23;;;14.90;99.90;;;;;;5131382;27;20391;-71
2022/09/09 01:15:24;;;;;;;14.85;8.88;;;14.90;99.90;;;;;;5124934;27;20415;-70
2022/09/09 01:18:09;;;;;;;12.98;8.90;;;14.90;99.90;;;;;;5125104;27;21070;-71
2022/09/09 01:21:02;;;;;;;13.35;8.68;;;14.80;99.90;;;;;;5131147;27;20424;-71
2022/09/09 01:23:38;;;;;;;13.77;8.55;;;14.80;99.90;;;;;;5118183;27;20782;-71
2022/09/09 01:26:25;;;;;;;13.98;8.40;;;14.80;99.90;;;;;;5116173;27;20466;-71
2022/09/09 01:28:54;;;;;;;12.77;8.00;;;14.80;99.90;;;;;;5118951;27;20523;-71
2022/09/09 01:31:34;;;;;;;11.70;8.32;;;14.80;99.90;;;;;;5129267;27;20405;-71
2022/09/09 01:34:00;;;;;;;13.00;8.52;;;14.80;99.90;;;;;;5116980;27;20412;-71
2022/09/09 01:36:57;;;;;;;15.45;8.70;;;14.70;99.90;;;;;;5106195;27;20404;-70
2022/09/09 01:39:23;;;;;;;13.95;9.27;;;14.70;99.90;;;;;;5114616;27;20417;-71
2022/09/09 01:41:49;;;;;;;15.63;8.95;;;14.70;99.90;;;;;;5131008;27;20398;-71
2022/09/09 01:44:15;;;;;;;14.03;8.63;;;14.60;99.90;;;;;;5125150;27;20404;-70
2022/09/09 01:46:40;;;;;;;12.77;8.18;;;14.60;99.90;;;;;;5110632;28;20883;-71
2022/09/09 01:49:08;;;;;;;15.10;8.88;;;14.60;99.90;;;;;;5128808;27;20476;-71
2022/09/09 01:51:34;;;;;;;13.43;8.80;;;14.60;99.90;;;;;;5130870;27;20410;-71
2022/09/09 01:54:01;;;;;;;15.65;8.05;;;14.60;99.90;;;;;;5116637;27;21207;-70
2022/09/09 01:56:48;;;;;;;15.15;8.20;;;14.50;99.90;;;;;;5118450;27;20396;-70
2022/09/09 01:59:44;;;;;;;14.45;8.82;;;14.60;99.90;;;;;;5118887;27;20406;-71
2022/09/09 02:02:31;;;;;;;11.52;7.45;;;14.50;99.90;;;;;;5124879;27;20849;-70
2022/09/09 02:05:08;;;;;;;12.73;7.75;;;14.50;99.90;;;;;;5123485;27;20407;-70
2022/09/09 02:07:41;;;;;;;14.07;8.10;;;14.60;99.90;;;;;;5119445;27;20769;-71
2022/09/09 02:10:35;;;;;;;12.98;7.80;;;14.50;99.90;;;;;;5129790;27;20888;-70
2022/09/09 02:13:09;;;;;;;14.23;8.00;;;14.50;99.90;;;;;;5129552;27;20406;-71
2022/09/09 02:15:57;;;;;;;14.90;8.50;;;14.50;99.90;;;;;;5120971;27;20456;-71
2022/09/09 02:18:39;;;;;;;15.00;8.15;;;14.50;99.90;;;;;;5128934;27;20418;-71
2022/09/09 02:21:06;;;;;;;13.73;8.13;;;14.60;99.90;;;;;;5129023;27;20395;-71
2022/09/09 02:23:34;;;;;;;11.80;7.85;;;14.60;99.90;;;;;;5128960;27;20394;-71
2022/09/09 02:26:01;;;;;;;14.70;8.55;;;14.60;99.90;;;;;;5129681;27;20390;-71
2022/09/09 02:28:31;;;;;;;14.57;7.93;;;14.60;99.90;;;;;;5129868;27;20565;-71
2022/09/09 02:30:58;;;;;;;11.93;7.90;;;14.60;99.90;;;;;;5116239;27;20400;-70
2022/09/09 02:33:28;;;;;;;14.88;7.75;;;14.60;99.90;;;;;;5129475;27;20909;-70
2022/09/09 02:35:56;;;;;;;13.38;7.80;;;14.60;99.90;;;;;;5129025;27;20826;-71
2022/09/09 02:38:28;;;;;;;11.95;7.55;;;14.60;99.90;;;;;;5128174;27;20405;-71
2022/09/09 02:40:54;;;;;;;14.05;7.68;;;14.60;99.90;;;;;;5129211;27;20407;-70
2022/09/09 02:43:20;;;;;;;13.23;7.67;;;14.70;99.90;;;;;;5128571;27;20410;-71
2022/09/09 02:46:03;;;;;;;13.05;7.63;;;14.70;99.90;;;;;;5128787;27;20398;-71
2022/09/09 02:48:46;;;;;;;14.77;8.10;;;14.70;99.90;;;;;;5130579;27;20414;-70
2022/09/09 02:51:26;;;;;;;15.27;7.75;;;14.70;99.90;;;;;;5122333;27;20403;-72
2022/09/09 02:54:13;;;;;;;12.90;7.90;;;14.70;99.90;;;;;;5139523;27;20407;-72
2022/09/09 02:56:43;;;;;;;13.23;7.68;;;14.70;99.90;;;;;;5142080;27;20402;-71
2022/09/09 02:59:10;;;;;;;12.98;7.65;;;14.70;99.90;;;;;;5134715;27;20413;-72
2022/09/09 03:01:35;;;;;;;14.07;7.75;;;14.70;99.90;;;;;;5146110;27;20395;-72
2022/09/09 03:04:04;;;;;;;15.57;7.90;;;14.80;99.90;;;;;;5136861;27;20417;-71
2022/09/09 03:06:30;;;;;;;12.00;7.70;;;14.80;99.90;;;;;;5139243;27;20409;-72
2022/09/09 03:08:57;;;;;;;10.30;7.22;;;14.80;99.90;;;;;;5101012;27;20434;-71
2022/09/09 03:11:22;;;;;;;12.45;7.70;;;14.80;99.90;;;;;;5128477;27;20401;-71
2022/09/09 03:13:49;;;;;;;11.35;7.18;;;14.80;99.90;;;;;;5128838;27;20395;-72
2022/09/09 03:16:15;;;;;;;14.73;7.18;;;14.90;99.90;;;;;;5119364;27;20397;-71
2022/09/09 03:18:40;;;;;;;15.27;6.82;;;14.90;99.90;;;;;;5122876;27;20410;-71
2022/09/09 03:21:06;;;;;;;11.93;7.20;;;14.90;99.90;;;;;;5118446;27;20803;-71
2022/09/09 03:23:32;;;;;;;12.10;6.75;;;14.90;99.90;;;;;;5097221;27;20815;-71
2022/09/09 03:25:58;;;;;;;13.20;7.20;;;14.90;99.90;;;;;;5128966;27;20390;-72
2022/09/09 03:28:30;;;;;;;12.43;7.32;;;14.90;99.90;;;;;;5127488;27;20434;-72
2022/09/09 03:30:59;;;;;;;13.43;7.67;;;14.90;99.90;;;;;;5128277;27;20398;-71
2022/09/09 03:33:25;;;;;;;15.25;8.02;;;15.00;99.90;;;;;;5118458;27;20477;-72
2022/09/09 03:35:51;;;;;;;11.68;7.25;;;14.90;99.90;;;;;;5127896;28;20393;-71
2022/09/09 03:38:16;;;;;;;13.00;7.33;;;15.00;99.90;;;;;;5128567;28;20404;-72
2022/09/09 03:40:57;;;;;;;12.40;7.32;;;15.00;99.90;;;;;;5128401;28;20953;-71
2022/09/09 03:43:23;;;;;;;12.18;6.90;;;15.00;99.90;;;;;;5139334;28;20773;-71
2022/09/09 03:45:49;;;;;;;10.68;7.20;;;15.00;99.90;;;;;;5115526;28;20444;-71
2022/09/09 03:48:19;;;;;;;11.60;7.60;;;14.90;99.90;;;;;;5131977;28;20800;-71
2022/09/09 03:50:49;;;;;;;11.40;6.55;;;15.00;99.90;;;;;;5128586;28;20398;-71
2022/09/09 03:53:16;;;;;;;12.50;7.00;;;15.00;99.90;;;;;;5128581;27;20483;-71
2022/09/09 03:55:49;;;;;;;12.83;6.73;;;15.00;99.90;;;;;;5128997;27;20411;-71
2022/09/09 03:58:18;;;;;;;10.15;6.53;;;15.00;99.90;;;;;;5128200;27;20461;-71
2022/09/09 04:01:03;;;;;;;10.52;7.05;;;15.00;99.90;;;;;;5123425;28;20982;-71
2022/09/09 04:03:29;;;;;;;9.75;6.32;;;15.00;99.90;;;;;;5122334;28;20889;-71
2022/09/09 04:05:58;;;;;;;11.30;6.55;;;15.00;99.90;;;;;;5115405;27;20434;-71
2022/09/09 04:08:26;;;;;;;9.38;6.03;;;15.00;99.90;;;;;;5107934;28;20428;-71
2022/09/09 04:10:53;;;;;;;11.65;6.22;;;15.00;99.90;;;;;;5123631;28;20546;-71
2022/09/09 04:13:19;;;;;;;11.07;6.20;;;15.00;99.90;;;;;;5107517;28;20990;-71
2022/09/09 04:15:52;;;;;;;10.98;6.10;;;15.00;99.90;;;;;;5113166;27;20487;-71
2022/09/09 04:18:19;;;;;;;11.48;6.45;;;15.00;99.90;;;;;;5124210;28;20480;-71
2022/09/09 04:20:47;;;;;;;9.90;5.60;;;15.00;99.90;;;;;;5127920;28;20409;-71
2022/09/09 04:23:13;;;;;;;11.65;5.78;;;15.10;99.90;;;;;;5128447;27;20403;-71
2022/09/09 04:25:44;;;;;;;9.32;5.05;;;15.10;99.90;;;;;;5114643;28;20765;-71
2022/09/09 04:28:10;;;;;;;8.50;5.30;;;15.10;99.90;;;;;;5125077;28;20624;-71
2022/09/09 04:30:36;;;;;;;8.17;4.90;;;15.10;99.90;;;;;;5127973;27;20474;-71
2022/09/09 04:33:02;;;;;;;12.95;5.20;;;15.10;99.90;;;;;;5109801;27;20938;-71
2022/09/09 04:35:27;;;;;;;7.93;4.45;;;15.10;99.90;;;;;;5090183;28;20404;-71
2022/09/09 04:37:53;;;;;;;9.30;4.43;;;15.10;99.90;;;;;;5121769;28;20483;-71
2022/09/09 04:40:19;;;;;;;8.30;4.10;;;15.20;99.90;;;;;;5119810;28;20458;-71
2022/09/09 04:42:44;;;;;;;7.25;3.67;;;15.20;99.90;;;;;;5122582;28;20420;-71
2022/09/09 04:45:11;;;;;;;7.77;3.97;;;15.20;99.90;;;;;;5119801;27;20506;-71
2022/09/09 04:47:36;;;;;;;7.97;4.22;;;15.20;99.90;;;;;;5131365;27;20469;-71
2022/09/09 04:50:02;;;;;;;8.13;3.30;;;15.30;99.90;;;;;;5132001;27;20935;-71
2022/09/09 04:52:28;;;;;;;6.80;3.58;;;15.30;99.90;;;;;;5119815;27;20422;-71
2022/09/09 04:54:54;;;;;;;6.23;3.03;;;15.30;99.90;;;;;;5124600;27;20797;-70
2022/09/09 04:57:19;;;;;;;7.32;2.78;;;15.30;99.90;;;;;;5122588;27;20390;-71
2022/09/09 04:59:45;;;;;;;7.40;2.83;;;15.30;99.90;;;;;;5126725;27;20970;-71
2022/09/09 05:02:11;;;;;;;7.03;2.30;;;15.30;99.90;;;;;;5122447;27;20411;-71
2022/09/09 05:04:37;;;;;;;6.95;2.10;;;15.30;99.90;;;;;;5117615;27;20395;-71
2022/09/09 05:07:03;;;;;;;8.20;2.40;;;15.30;99.90;;;;;;5113956;27;20404;-71
2022/09/09 05:09:28;;;;;;;5.97;1.85;;;15.30;99.90;;;;;;5106015;27;20816;-71
2022/09/09 05:11:54;;;;;;;6.25;2.00;;;15.30;99.90;;;;;;5107320;27;20869;-72
2022/09/09 05:14:20;;;;;;;6.97;2.35;;;15.30;99.90;;;;;;5118408;27;20944;-71
2022/09/09 05:16:47;;;;;;;6.10;2.88;;;15.30;99.90;;;;;;5124956;27;20892;-71
2022/09/09 05:19:12;;;;;;;8.10;3.05;;;15.30;99.90;;;;;;5131352;27;20403;-71
2022/09/09 05:21:38;;;;;;;8.98;3.50;;;15.30;99.90;;;;;;5130580;27;20413;-71
2022/09/09 05:24:04;;;;;;;8.93;3.47;;;15.30;99.90;;;;;;5113669;27;20435;-71
2022/09/09 05:26:30;;;;;;;8.80;3.58;;;15.40;99.90;;;;;;5109909;28;20406;-71
2022/09/09 05:28:56;;;;;;;9.07;3.58;;;15.30;99.90;;;;;;5109548;27;20427;-71
2022/09/09 05:31:22;;;;;;;9.05;3.40;;;15.30;99.90;;;;;;5110017;27;20977;-72
2022/09/09 05:33:49;;;;;;;11.57;3.90;;;15.30;99.90;;;;;;5091643;27;20515;-71
2022/09/09 05:36:20;;;;;;;9.15;4.15;;;15.30;99.90;;;;;;5120473;27;20399;-71
2022/09/09 05:38:45;;;;;;;8.60;3.85;;;15.30;99.90;;;;;;5115762;27;20410;-71
2022/09/09 05:41:12;;;;;;;7.80;3.20;;;15.30;99.90;;;;;;5125565;27;20396;-71
2022/09/09 05:43:38;;;;;;;6.38;3.25;;;15.30;99.90;;;;;;5120195;27;20406;-71
2022/09/09 05:46:14;;;;;;;8.17;3.00;;;15.30;99.90;;;;;;5111768;27;20479;-71
2022/09/09 05:48:41;;;;;;;8.73;3.28;;;15.30;99.90;;;;;;5122145;27;20461;-71
2022/09/09 05:51:12;;;;;;;9.48;3.60;;;15.20;99.90;;;;;;5123598;27;21310;-72
2022/09/09 05:53:38;;;;;;;8.63;3.45;;;15.20;99.90;;;;;;5092545;28;20517;-71
2022/09/09 05:56:22;;;;;;;9.02;4.07;;;15.20;99.90;;;;;;5116237;27;20403;-71
2022/09/09 05:58:49;;;;;;;10.13;5.07;;;15.20;99.90;;;;;;5113821;27;20403;-71
2022/09/09 06:01:17;;;;;;;8.90;5.27;;;15.20;99.90;;;;;;5107079;27;20992;-71
2022/09/09 06:03:44;;;;;;;10.63;5.97;;;15.20;99.90;;;;;;5127259;27;21277;-71
2022/09/09 06:06:17;;;;;;;12.13;5.35;;;15.20;99.90;;;;;;5110156;27;20427;-71
2022/09/09 06:08:44;;;;;;;10.57;5.72;;;15.20;99.90;;;;;;5109913;27;20428;-71
2022/09/09 06:11:22;;;;;;;12.27;6.05;;;15.20;99.90;;;;;;5109814;27;20425;-71
2022/09/09 06:13:53;;;;;;;12.05;6.40;;;15.20;99.90;;;;;;5116063;27;20409;-71
2022/09/09 06:16:20;;;;;;;10.30;6.55;;;15.20;99.90;;;;;;5113375;27;20416;-71
2022/09/09 06:18:47;;;;;;;10.00;6.38;;;15.30;99.90;;;;;;5111330;27;20400;-71
2022/09/09 06:21:17;;;;;;;12.85;6.57;;;15.30;99.90;;;;;;5129870;27;20490;-72
2022/09/09 06:23:44;;;;;;;11.95;6.47;;;15.30;99.90;;;;;;5122699;27;20988;-72
2022/09/09 06:26:17;;;;;;;11.60;6.22;;;15.30;99.90;;;;;;5123816;27;20398;-72
2022/09/09 06:28:44;;;;;;;12.20;6.45;;;15.30;99.90;;;;;;5129406;27;20442;-71
2022/09/09 06:31:12;;;;;;;13.30;6.45;;;15.40;99.90;;;;;;5128654;27;20486;-71
2022/09/09 06:33:40;;;;;;;11.68;5.65;;;15.40;99.90;;;;;;5107600;27;20834;-71
2022/09/09 06:36:10;;;;;;;13.10;6.13;;;15.40;99.90;;;;;;5112575;27;20407;-71
2022/09/09 06:38:35;;;;;;;11.10;5.93;;;15.40;99.90;;;;;;5115981;27;20406;-71
2022/09/09 06:41:01;;;;;;;9.95;6.00;;;15.40;99.90;;;;;;5130107;27;20410;-71
2022/09/09 06:43:27;;;;;;;11.15;5.55;;;15.40;99.90;;;;;;5129154;27;20418;-71
2022/09/09 06:45:58;;;;;;;11.65;5.65;;;15.40;99.90;;;;;;5129396;27;20437;-72
2022/09/09 06:48:28;;;;;;;10.45;5.63;;;15.50;99.90;;;;;;5115543;27;20426;-72
2022/09/09 06:51:07;;;;;;;10.15;5.78;;;15.50;99.90;;;;;;5109039;27;20463;-71
2022/09/09 06:53:34;;;;;;;10.50;5.73;;;15.50;99.90;;;;;;5110930;27;20415;-71
2022/09/09 06:56:17;;;;;;;10.80;6.00;;;15.60;99.90;;;;;;5129502;27;20403;-71
2022/09/09 06:58:43;;;;;;;11.30;5.35;;;15.60;99.90;;;;;;5129547;27;20426;-71
2022/09/09 07:01:15;;;;;;;8.63;4.90;;;15.70;99.90;;;;;;5129007;27;20394;-71
2022/09/09 07:03:45;;;;;;;8.95;4.95;;;15.80;99.90;;;;;;5093212;28;20490;-71
2022/09/09 07:06:20;;;;;;;8.48;5.07;;;15.80;99.90;;;;;;5121773;27;20402;-72
2022/09/09 07:08:53;;;;;;;9.20;5.00;;;15.90;99.90;;;;;;5129198;27;20425;-72
2022/09/09 07:11:20;;;;;;;8.68;4.95;;;15.90;99.90;;;;;;5115755;27;20440;-71
2022/09/09 07:13:47;;;;;;;9.02;5.10;;;15.90;99.90;;;;;;5128803;27;20456;-72
2022/09/09 07:16:18;;;;;;;8.57;5.20;;;16.00;99.90;;;;;;5115656;27;20468;-72
2022/09/09 07:18:44;;;;;;;8.82;4.93;;;16.00;99.90;;;;;;5129190;27;20410;-72
2022/09/09 07:21:12;;;;;;;10.10;5.43;;;16.10;99.90;;;;;;5129135;27;20410;-72
2022/09/09 07:23:41;;;;;;;8.82;4.97;;;16.00;99.90;;;;;;5116784;27;20445;-72
2022/09/09 07:26:14;;;;;;;8.38;4.80;;;16.00;99.90;;;;;;5126174;27;20434;-72
2022/09/09 07:28:41;;;;;;;7.70;4.50;;;16.10;99.90;;;;;;5118745;27;20433;-71
2022/09/09 07:31:13;;;;;;;8.13;4.57;;;16.20;99.90;;;;;;5111744;27;20428;-71
2022/09/09 07:33:40;;;;;;;8.23;4.65;;;16.20;99.90;;;;;;5119680;27;20410;-71
2022/09/09 07:36:26;;;;;;;9.05;5.40;;;16.30;99.90;;;;;;5124082;27;20871;-71
2022/09/09 07:38:58;;;;;;;8.43;5.50;;;16.40;99.90;;;;;;5107913;28;20442;-71
2022/09/09 07:41:30;;;;;;;8.43;4.40;;;16.60;99.90;;;;;;5103652;28;20490;-71
2022/09/09 07:43:56;;;;;;;8.70;4.40;;;16.70;99.90;;;;;;5113636;28;20403;-71
2022/09/09 07:46:25;;;;;;;8.40;4.50;;;16.70;99.90;;;;;;5112227;28;21075;-71
2022/09/09 07:48:55;;;;;;;8.50;4.33;;;16.80;99.90;;;;;;5110958;27;20429;-72
2022/09/09 07:51:27;;;;;;;9.57;4.30;;;16.90;99.90;;;;;;5118238;27;20392;-72
2022/09/09 07:53:58;;;;;;;8.90;4.72;;;17.00;99.90;;;;;;5108327;28;20461;-71
2022/09/09 07:56:26;;;;;;;6.47;4.10;;;17.00;99.90;;;;;;5120203;28;20414;-71
2022/09/09 07:58:53;;;;;;;6.25;4.07;;;17.10;99.90;;;;;;5115171;27;20406;-71
2022/09/09 08:01:31;;;;;;;9.75;4.57;;;17.10;99.90;;;;;;5128827;27;20948;-71
2022/09/09 08:04:02;;;;;;;8.43;4.38;;;17.20;99.90;;;;;;5108404;27;20612;-72
2022/09/09 08:06:30;;;;;;;7.82;4.60;;;17.20;99.90;;;;;;5122248;28;20402;-71
2022/09/09 08:08:56;;;;;;;9.40;4.38;;;17.30;99.90;;;;;;5110161;28;20423;-71
2022/09/09 08:11:23;;;;;;;7.13;3.80;;;17.30;99.90;;;;;;5128057;28;20398;-72
2022/09/09 08:13:51;;;;;;;7.88;4.10;;;17.30;99.90;;;;;;5128569;27;20409;-71
2022/09/09 08:16:21;;;;;;;6.47;3.90;;;17.30;99.90;;;;;;5114400;27;20893;-71
2022/09/09 08:18:51;;;;;;;7.70;4.10;;;17.40;99.90;;;;;;5128884;28;20414;-71
2022/09/09 08:21:19;;;;;;;7.28;4.05;;;17.50;99.90;;;;;;5125854;27;20410;-71
2022/09/09 08:23:47;;;;;;;7.88;3.85;;;17.60;99.90;;;;;;5100704;27;20409;-72
2022/09/09 08:26:22;;;;;;;9.10;4.20;;;17.70;99.90;;;;;;5127921;27;20412;-71
2022/09/09 08:28:52;;;;;;;8.13;3.50;;;17.80;99.90;;;;;;5115795;27;20422;-71
2022/09/09 08:31:21;;;;;;;6.18;2.90;;;18.00;99.90;;;;;;5131859;27;20413;-71
2022/09/09 08:33:47;;;;;;;7.05;3.10;;;18.00;99.90;;;;;;5131978;27;20409;-71
2022/09/09 08:36:18;;;;;;;6.47;3.28;;;18.10;99.90;;;;;;5131535;27;20394;-71
2022/09/09 08:38:48;;;;;;;6.32;3.28;;;18.20;99.90;;;;;;5116276;27;20475;-71
2022/09/09 08:41:35;;;;;;;5.28;3.00;;;18.20;99.90;;;;;;5120681;27;20463;-71
2022/09/09 08:44:11;;;;;;;7.45;3.10;;;18.20;99.90;;;;;;5125966;27;20444;-71
2022/09/09 08:46:46;;;;;;;4.28;2.88;;;18.20;99.90;;;;;;5111516;27;20400;-71
2022/09/09 08:49:50;;;;;;;5.78;3.20;;;18.20;99.90;;;;;;5119525;27;20430;-71
2022/09/09 08:52:22;;;;;;;6.25;2.92;;;18.30;99.90;;;;;;5110713;28;20432;-71
2022/09/09 08:54:48;;;;;;;5.88;3.22;;;18.30;99.90;;;;;;5111253;27;20400;-71
2022/09/09 08:57:21;;;;;;;5.93;3.10;;;18.40;99.90;;;;;;5111415;27;20396;-71
2022/09/09 08:59:46;;;;;;;6.28;3.60;;;18.50;99.90;;;;;;5131487;27;20438;-72
2022/09/09 09:02:32;;;;;;;5.73;2.80;;;18.60;99.90;;;;;;5131402;27;20433;-71
2022/09/09 09:05:18;;;;;;;7.15;2.92;;;18.70;99.90;;;;;;5130862;27;20403;-71
2022/09/09 09:08:06;;;;;;;5.90;2.60;;;18.80;99.90;;;;;;5130602;27;20406;-71
2022/09/09 09:10:51;;;;;;;4.38;2.30;;;18.80;99.90;;;;;;5131178;27;20706;-71
2022/09/09 09:13:23;;;;;;;5.90;2.40;;;18.90;99.90;;;;;;5129922;27;20819;-71
2022/09/09 09:16:01;;;;;;;4.70;2.22;;;18.90;99.90;;;;;;5130614;27;20463;-70
2022/09/09 09:18:27;;;;;;;6.22;2.15;;;18.90;99.90;;;;;;5130457;27;20399;-71
2022/09/09 09:21:20;;;;;;;6.07;2.30;;;19.00;99.90;;;;;;5130856;27;20397;-72
2022/09/09 09:23:57;;;;;;;5.90;2.42;;;19.10;99.90;;;;;;5131298;27;20414;-71
2022/09/09 09:26:32;;;;;;;5.15;2.15;;;19.40;99.90;;;;;;5129348;27;20428;-72
2022/09/09 09:29:00;;;;;;;5.93;2.20;;;19.80;99.90;;;;;;5122305;27;20985;-72
2022/09/09 09:31:29;;;;;;;6.60;2.08;;;20.00;99.90;;;;;;5111458;27;20403;-71
2022/09/09 09:33:59;;;;;;;6.90;2.17;;;20.00;99.90;;;;;;5130813;27;20420;-72
2022/09/09 09:36:34;;;;;;;4.20;2.20;;;19.90;99.90;;;;;;5116931;27;20442;-71
2022/09/09 09:39:03;;;;;;;6.72;2.60;;;20.00;99.90;;;;;;5120518;27;20407;-71
2022/09/09 09:41:47;;;;;;;5.80;2.75;;;20.50;99.90;;;;;;5106914;27;20798;-71
2022/09/09 09:44:28;;;;;;;5.68;2.50;;;20.70;99.90;;;;;;5124286;27;20406;-71
2022/09/09 09:47:15;;;;;;;5.27;2.50;;;20.80;99.90;;;;;;5110548;28;20474;-71
2022/09/09 09:49:53;;;;;;;5.20;2.50;;;20.90;99.90;;;;;;5110827;27;20424;-71
2022/09/09 09:52:28;;;;;;;6.50;2.83;;;21.20;99.90;;;;;;5110851;27;20462;-71
2022/09/09 09:54:56;;;;;;;5.57;2.60;;;21.30;99.90;;;;;;5110380;27;20428;-71
2022/09/09 09:57:29;;;;;;;5.10;2.40;;;21.20;99.90;;;;;;5087820;27;20408;-71
2022/09/09 10:00:17;;;;;;;5.75;2.70;;;21.10;99.90;;;;;;5110716;27;20397;-71
2022/09/09 10:02:45;;;;;;;5.57;2.30;;;20.90;99.90;;;;;;5129865;27;20411;-71
2022/09/09 10:05:21;;;;;;;4.53;2.20;;;20.70;99.90;;;;;;5130216;27;20403;-71
2022/09/09 10:07:47;;;;;;;6.18;2.40;;;20.60;99.90;;;;;;5117304;27;20410;-71
2022/09/09 10:10:25;;;;;;;3.92;1.70;;;20.60;99.90;;;;;;5130143;27;20394;-71
2022/09/09 10:13:04;;;;;;;5.63;1.85;;;20.90;99.90;;;;;;5129799;27;20428;-71
2022/09/09 10:15:43;;;;;;;4.50;1.70;;;21.20;99.90;;;;;;5128866;27;20399;-71
2022/09/09 10:18:32;;;;;;;7.90;1.85;;;21.40;99.90;;;;;;5098801;27;20432;-72
2022/09/09 10:21:11;;;;;;;5.53;1.70;;;21.70;99.90;;;;;;5119229;27;20407;-71
2022/09/09 10:24:05;;;;;;;6.05;1.85;;;22.70;99.90;;;;;;5129813;27;20403;-71
2022/09/09 10:26:40;;;;;;;5.05;1.60;;;23.70;99.90;;;;;;5129349;27;20402;-71
2022/09/09 10:29:27;;;;;;;6.82;1.88;;;24.50;99.90;;;;;;5120631;27;20432;-72
2022/09/09 10:32:05;;;;;;;5.22;1.40;;;24.90;99.90;;;;;;5127364;27;20807;-71
2022/09/09 10:34:52;;;;;;;5.47;1.07;;;24.60;99.90;;;;;;5116356;27;20409;-72
2022/09/09 10:37:42;;;;;;;5.80;0.90;;;24.10;99.90;;;;;;5118908;27;20404;-71
2022/09/09 10:40:32;;;;;;;6.80;1.33;;;23.70;99.90;;;;;;5128651;27;20414;-71
2022/09/09 10:43:39;;;;;;;5.40;1.10;;;23.20;99.90;;;;;;5126071;27;20782;-73
2022/09/09 10:46:40;;;;;;;4.83;1.10;;;22.90;99.90;;;;;;5093504;27;20901;-71
2022/09/09 10:49:24;;;;;;;6.18;1.30;;;23.10;99.90;;;;;;5115061;27;20511;-72
2022/09/09 10:52:07;;;;;;;7.70;1.10;;;23.70;99.90;;;;;;5118644;27;20482;-72
2022/09/09 10:54:45;;;;;;;4.77;0.90;;;24.00;99.90;;;;;;5129685;27;20806;-72
2022/09/09 10:57:20;;;;;;;6.93;0.98;;;24.40;99.90;;;;;;5116198;27;20868;-72
2022/09/09 10:59:52;;;;;;;5.97;1.00;;;25.20;99.90;;;;;;5116563;27;20912;-72
2022/09/09 11:02:27;;;;;;;6.03;1.20;;;25.80;99.80;;;;;;5128756;27;20904;-73
2022/09/09 11:05:05;;;;;;;5.65;0.98;;;26.20;98.80;;;;;;5129445;27;21099;-73
2022/09/09 11:07:43;;;;;;;6.63;1.03;;;26.80;98.40;;;;;;5146873;27;20399;-71
2022/09/09 11:10:45;;;;;;;5.43;1.00;;;27.40;98.00;;;;;;5150591;27;20492;-72
2022/09/09 11:13:31;;;;;;;5.63;1.40;;;28.00;95.40;;;;;;5141173;27;20418;-72
2022/09/09 11:16:05;;;;;;;5.93;1.10;;;28.00;94.80;;;;;;5137013;27;20390;-72
2022/09/09 11:18:35;;;;;;;7.93;0.98;;;27.60;94.10;;;;;;5150006;27;20395;-73
2022/09/09 11:21:05;;;;;;;6.33;1.03;;;26.70;94.40;;;;;;5143168;27;20410;-73
2022/09/09 11:23:42;;;;;;;5.40;1.10;;;26.00;94.30;;;;;;5130921;27;20396;-72
2022/09/09 11:26:15;;;;;;;5.83;1.23;;;25.40;96.00;;;;;;5130008;27;20403;-72
2022/09/09 11:29:13;;;;;;;5.93;1.20;;;25.30;96.70;;;;;;5124711;27;20481;-71
2022/09/09 11:31:51;;;;;;;6.38;1.05;;;26.00;97.00;;;;;;5126930;27;20426;-72
2022/09/09 11:34:37;;;;;;;7.05;0.93;;;26.90;95.90;;;;;;5130266;27;20482;-72
2022/09/09 11:37:17;;;;;;;5.85;1.15;;;27.50;94.40;;;;;;5121309;27;20499;-72
2022/09/09 11:39:58;;;;;;;5.18;1.10;;;27.40;94.00;;;;;;5124923;27;20504;-72
2022/09/09 11:42:24;;;;;;;4.57;0.93;;;26.90;93.30;;;;;;5128760;27;20410;-71
2022/09/09 11:44:51;;;;;;;5.47;0.80;;;26.50;93.60;;;;;;5128528;28;20399;-72
2022/09/09 11:47:28;;;;;;;5.88;0.90;;;26.40;94.30;;;;;;5128318;27;20485;-73
2022/09/09 11:49:55;;;;;;;4.60;0.80;;;26.20;94.00;;;;;;5129123;28;20964;-73
2022/09/09 11:52:43;;;;;;;4.65;0.70;;;26.00;93.80;;;;;;5130691;28;20391;-72
2022/09/09 11:55:31;;;;;;;4.03;0.80;;;25.70;93.60;;;;;;5132452;27;20524;-72
2022/09/09 11:58:16;;;;;;;3.05;0.70;;;25.20;93.40;;;;;;5137634;27;20414;-71
2022/09/09 12:00:48;;;;;;;4.28;0.85;;;24.90;93.60;;;;;;5140686;27;20466;-73
2022/09/09 12:03:37;;;;;;;6.23;0.80;;;24.80;94.10;;;;;;5141668;27;20423;-73
2022/09/09 12:06:25;;;;;;;4.60;0.60;;;25.20;94.60;;;;;;5143599;27;20417;-72
2022/09/09 12:08:57;;;;;;;5.50;0.80;;;26.00;94.20;;;;;;5131914;27;20426;-73
2022/09/09 12:11:28;;;;;;;7.40;0.95;;;26.30;93.90;;;;;;5132219;27;20409;-73
2022/09/09 12:13:55;;;;;;;4.43;0.60;;;26.90;93.50;;;;;;5131772;27;20939;-71
2022/09/09 12:16:34;;;;;;;3.90;0.77;;;27.70;93.50;;;;;;5142928;27;20485;-71
2022/09/09 12:19:09;;;;;;;3.90;0.50;;;28.60;92.50;;;;;;5135548;27;20409;-69
2022/09/09 12:21:43;;;;;;;3.15;0.43;;;28.60;90.20;;;;;;5131138;27;20756;-70
2022/09/09 12:24:11;;;;;;;4.25;0.50;;;28.40;90.10;;;;;;5120268;27;20896;-70
2022/09/09 12:26:44;;;;;;;4.32;0.80;;;28.40;89.70;;;;;;5131331;27;20455;-70
2022/09/09 12:29:19;;;;;;;4.32;0.50;;;28.50;90.30;;;;;;5132877;27;20430;-70
2022/09/09 12:31:56;;;;;;;4.38;0.55;;;28.50;89.30;;;;;;5129862;27;20482;-71
2022/09/09 12:34:46;;;;;;;4.60;0.80;;;28.30;88.60;;;;;;5132572;27;20406;-71
2022/09/09 12:37:18;;;;;;;4.93;0.70;;;27.50;86.90;;;;;;5131916;27;20892;-70
2022/09/09 12:40:05;;;;;;;5.35;0.70;;;26.70;88.80;;;;;;5133087;27;20434;-70
2022/09/09 12:42:33;;;;;;;3.10;0.70;;;26.10;90.20;;;;;;5128352;27;20407;-70
2022/09/09 12:45:00;;;;;;;5.03;0.73;;;25.60;90.40;;;;;;5132441;27;20421;-70
2022/09/09 12:47:52;;;;;;;4.40;0.60;;;25.20;90.40;;;;;;5106022;27;20491;-70
2022/09/09 12:50:25;;;;;;;4.38;0.82;;;24.70;91.10;;;;;;5131881;27;20394;-69
2022/09/09 12:52:54;;;;;;;6.53;0.82;;;24.30;91.80;;;;;;5131735;27;20476;-70
2022/09/09 12:55:24;;;;;;;4.15;0.60;;;23.90;92.50;;;;;;5118638;27;20917;-70
2022/09/09 12:57:51;;;;;;;4.93;0.60;;;23.60;93.20;;;;;;5106870;27;20924;-70
2022/09/09 13:00:22;;;;;;;4.30;0.55;;;23.40;93.80;;;;;;5117440;27;20432;-71
2022/09/09 13:03:02;;;;;;;3.22;0.47;;;23.30;94.30;;;;;;5131670;27;20571;-70
2022/09/09 13:05:35;;;;;;;2.90;0.47;;;23.20;94.60;;;;;;5120127;27;20395;-70
2022/09/09 13:08:06;;;;;;;3.08;0.60;;;23.30;94.80;;;;;;5127873;27;20495;-70
2022/09/09 13:10:39;;;;;;;4.70;0.70;;;23.40;94.90;;;;;;5092949;28;20404;-70
2022/09/09 13:13:16;;;;;;;3.70;0.50;;;23.40;94.40;;;;;;5129000;27;20421;-70
2022/09/09 13:15:56;;;;;;;3.63;0.60;;;23.70;94.60;;;;;;5131577;27;20413;-70